sensor_id;sensor_type;location;lat;lon;timestamp;P1;durP1;ratioP1;P2;durP2;ratioP2
12248;SDS011;6187;50.778;6.142;2022-12-29T00:01:16;0.30;;;0.30;;
12248;SDS011;6187;50.778;6.142;2022-12-29T00:03:45;0.40;;;0.30;;
12248;SDS011;6187;50.778;6.142;2022-12-29T00:06:14;0.43;;;0.43;;
12248;SDS011;6187;50.778;6.142;2022-12-29T00:08:42;0.30;;;0.30;;
12248;SDS011;6187;50.778;6.142;2022-12-29T00:11:11;0.40;;;0.30;;
12248;SDS011;6187;50.778;6.142;2022-12-29T00:13:41;0.30;;;0.30;;
12248;SDS011;6187;50.778;6.142;2022-12-29T00:16:28;0.77;;;0.50;;
12248;SDS011;6187;50.778;6.142;2022-12-29T00:18:57;0.30;;;0.30;;
12248;SDS011;6187;50.778;6.142;2022-12-29T00:21:26;0.30;;;0.30;;
12248;SDS011;6187;50.778;6.142;2022-12-29T00:24:13;0.40;;;0.40;;
12248;SDS011;6187;50.778;6.142;2022-12-29T00:27:08;0.30;;;0.30;;
12248;SDS011;6187;50.778;6.142;2022-12-29T00:29:56;0.13;;;0.13;;
12248;SDS011;6187;50.778;6.142;2022-12-29T00:32:43;0.40;;;0.40;;
12248;SDS011;6187;50.778;6.142;2022-12-29T00:35:31;0.30;;;0.30;;
12248;SDS011;6187;50.778;6.142;2022-12-29T00:38:01;0.73;;;0.43;;
12248;SDS011;6187;50.778;6.142;2022-12-29T00:40:47;0.37;;;0.37;;
12248;SDS011;6187;50.778;6.142;2022-12-29T00:43:34;0.40;;;0.40;;
12248;SDS011;6187;50.778;6.142;2022-12-29T00:46:21;0.40;;;0.40;;
12248;SDS011;6187;50.778;6.142;2022-12-29T00:48:50;0.43;;;0.43;;
12248;SDS011;6187;50.778;6.142;2022-12-29T00:51:48;0.40;;;0.23;;
12248;SDS011;6187;50.778;6.142;2022-12-29T00:54:16;0.43;;;0.43;;
12248;SDS011;6187;50.778;6.142;2022-12-29T00:56:45;0.90;;;0.50;;
12248;SDS011;6187;50.778;6.142;2022-12-29T00:59:15;0.80;;;0.60;;
12248;SDS011;6187;50.778;6.142;2022-12-29T01:01:45;0.63;;;0.60;;
12248;SDS011;6187;50.778;6.142;2022-12-29T01:04:14;0.50;;;0.50;;
12248;SDS011;6187;50.778;6.142;2022-12-29T01:06:43;0.40;;;0.40;;
12248;SDS011;6187;50.778;6.142;2022-12-29T01:09:12;1.33;;;0.70;;
12248;SDS011;6187;50.778;6.142;2022-12-29T01:12:01;0.60;;;0.60;;
12248;SDS011;6187;50.778;6.142;2022-12-29T01:14:30;0.60;;;0.60;;
12248;SDS011;6187;50.778;6.142;2022-12-29T01:17:00;0.67;;;0.67;;
12248;SDS011;6187;50.778;6.142;2022-12-29T01:19:29;1.03;;;0.70;;
12248;SDS011;6187;50.778;6.142;2022-12-29T01:21:58;0.67;;;0.67;;
12248;SDS011;6187;50.778;6.142;2022-12-29T01:24:26;0.60;;;0.60;;
12248;SDS011;6187;50.778;6.142;2022-12-29T01:26:55;0.60;;;0.60;;
12248;SDS011;6187;50.778;6.142;2022-12-29T01:29:23;0.87;;;0.80;;
12248;SDS011;6187;50.778;6.142;2022-12-29T01:31:52;1.33;;;0.90;;
12248;SDS011;6187;50.778;6.142;2022-12-29T01:34:22;1.47;;;0.83;;
12248;SDS011;6187;50.778;6.142;2022-12-29T01:36:50;1.13;;;0.80;;
12248;SDS011;6187;50.778;6.142;2022-12-29T01:39:19;1.33;;;0.63;;
12248;SDS011;6187;50.778;6.142;2022-12-29T01:41:48;1.77;;;1.10;;
12248;SDS011;6187;50.778;6.142;2022-12-29T01:47:03;1.90;;;0.90;;
12248;SDS011;6187;50.778;6.142;2022-12-29T01:49:34;1.43;;;1.13;;
12248;SDS011;6187;50.778;6.142;2022-12-29T01:52:03;0.70;;;0.70;;
12248;SDS011;6187;50.778;6.142;2022-12-29T01:54:34;1.33;;;0.73;;
12248;SDS011;6187;50.778;6.142;2022-12-29T01:57:05;1.13;;;0.80;;
12248;SDS011;6187;50.778;6.142;2022-12-29T01:59:36;0.60;;;0.60;;
12248;SDS011;6187;50.778;6.142;2022-12-29T02:02:06;1.57;;;0.90;;
12248;SDS011;6187;50.778;6.142;2022-12-29T02:04:38;0.80;;;0.80;;
12248;SDS011;6187;50.778;6.142;2022-12-29T02:07:11;1.33;;;0.70;;
12248;SDS011;6187;50.778;6.142;2022-12-29T02:09:42;1.47;;;0.80;;
12248;SDS011;6187;50.778;6.142;2022-12-29T02:12:11;0.87;;;0.80;;
12248;SDS011;6187;50.778;6.142;2022-12-29T02:14:40;1.47;;;0.70;;
12248;SDS011;6187;50.778;6.142;2022-12-29T02:17:11;0.67;;;0.67;;
12248;SDS011;6187;50.778;6.142;2022-12-29T02:19:53;0.70;;;0.60;;
12248;SDS011;6187;50.778;6.142;2022-12-29T02:22:29;0.87;;;0.70;;
12248;SDS011;6187;50.778;6.142;2022-12-29T02:25:22;1.53;;;0.63;;
12248;SDS011;6187;50.778;6.142;2022-12-29T02:28:04;0.77;;;0.50;;
12248;SDS011;6187;50.778;6.142;2022-12-29T02:30:42;1.43;;;0.60;;
12248;SDS011;6187;50.778;6.142;2022-12-29T02:33:13;0.63;;;0.50;;
12248;SDS011;6187;50.778;6.142;2022-12-29T02:35:44;0.87;;;0.50;;
12248;SDS011;6187;50.778;6.142;2022-12-29T02:38:18;1.00;;;0.67;;
12248;SDS011;6187;50.778;6.142;2022-12-29T02:40:51;0.60;;;0.60;;
12248;SDS011;6187;50.778;6.142;2022-12-29T02:43:22;0.77;;;0.60;;
12248;SDS011;6187;50.778;6.142;2022-12-29T02:45:54;0.60;;;0.50;;
12248;SDS011;6187;50.778;6.142;2022-12-29T02:48:24;0.70;;;0.50;;
12248;SDS011;6187;50.778;6.142;2022-12-29T02:50:55;0.50;;;0.40;;
12248;SDS011;6187;50.778;6.142;2022-12-29T02:53:26;1.63;;;0.50;;
12248;SDS011;6187;50.778;6.142;2022-12-29T02:56:15;0.50;;;0.50;;
12248;SDS011;6187;50.778;6.142;2022-12-29T02:58:44;0.60;;;0.50;;
12248;SDS011;6187;50.778;6.142;2022-12-29T03:01:19;1.00;;;0.60;;
12248;SDS011;6187;50.778;6.142;2022-12-29T03:03:58;0.50;;;0.50;;
12248;SDS011;6187;50.778;6.142;2022-12-29T03:06:31;0.90;;;0.60;;
12248;SDS011;6187;50.778;6.142;2022-12-29T03:09:02;0.70;;;0.47;;
12248;SDS011;6187;50.778;6.142;2022-12-29T03:11:47;0.87;;;0.53;;
12248;SDS011;6187;50.778;6.142;2022-12-29T03:14:43;0.50;;;0.43;;
12248;SDS011;6187;50.778;6.142;2022-12-29T03:17:39;0.63;;;0.50;;
12248;SDS011;6187;50.778;6.142;2022-12-29T03:20:08;0.97;;;0.60;;
12248;SDS011;6187;50.778;6.142;2022-12-29T03:22:41;0.50;;;0.50;;
12248;SDS011;6187;50.778;6.142;2022-12-29T03:25:13;0.70;;;0.70;;
12248;SDS011;6187;50.778;6.142;2022-12-29T03:27:45;0.90;;;0.67;;
12248;SDS011;6187;50.778;6.142;2022-12-29T03:30:14;0.70;;;0.50;;
12248;SDS011;6187;50.778;6.142;2022-12-29T03:32:45;0.97;;;0.70;;
12248;SDS011;6187;50.778;6.142;2022-12-29T03:35:15;0.77;;;0.73;;
12248;SDS011;6187;50.778;6.142;2022-12-29T03:37:46;1.17;;;0.70;;
12248;SDS011;6187;50.778;6.142;2022-12-29T03:40:18;0.63;;;0.50;;
12248;SDS011;6187;50.778;6.142;2022-12-29T03:42:47;0.60;;;0.60;;
12248;SDS011;6187;50.778;6.142;2022-12-29T03:45:16;0.70;;;0.63;;
12248;SDS011;6187;50.778;6.142;2022-12-29T03:47:46;0.83;;;0.80;;
12248;SDS011;6187;50.778;6.142;2022-12-29T03:50:15;0.97;;;0.70;;
12248;SDS011;6187;50.778;6.142;2022-12-29T03:52:44;1.70;;;0.70;;
12248;SDS011;6187;50.778;6.142;2022-12-29T03:55:12;0.70;;;0.60;;
12248;SDS011;6187;50.778;6.142;2022-12-29T03:57:41;0.67;;;0.67;;
12248;SDS011;6187;50.778;6.142;2022-12-29T04:00:10;1.13;;;0.80;;
12248;SDS011;6187;50.778;6.142;2022-12-29T04:02:39;0.87;;;0.60;;
12248;SDS011;6187;50.778;6.142;2022-12-29T04:05:10;0.77;;;0.60;;
12248;SDS011;6187;50.778;6.142;2022-12-29T04:07:39;1.17;;;0.60;;
12248;SDS011;6187;50.778;6.142;2022-12-29T04:10:08;0.93;;;0.60;;
12248;SDS011;6187;50.778;6.142;2022-12-29T04:12:37;1.33;;;0.70;;
12248;SDS011;6187;50.778;6.142;2022-12-29T04:15:06;0.97;;;0.60;;
12248;SDS011;6187;50.778;6.142;2022-12-29T04:17:34;1.87;;;0.90;;
12248;SDS011;6187;50.778;6.142;2022-12-29T04:20:03;0.70;;;0.50;;
12248;SDS011;6187;50.778;6.142;2022-12-29T04:22:57;1.60;;;0.70;;
12248;SDS011;6187;50.778;6.142;2022-12-29T04:25:26;0.73;;;0.60;;
12248;SDS011;6187;50.778;6.142;2022-12-29T04:27:55;1.23;;;0.80;;
12248;SDS011;6187;50.778;6.142;2022-12-29T04:30:24;2.50;;;0.70;;
12248;SDS011;6187;50.778;6.142;2022-12-29T04:32:52;1.83;;;0.60;;
12248;SDS011;6187;50.778;6.142;2022-12-29T04:35:21;1.30;;;0.70;;
12248;SDS011;6187;50.778;6.142;2022-12-29T04:37:49;0.77;;;0.77;;
12248;SDS011;6187;50.778;6.142;2022-12-29T04:40:19;0.90;;;0.80;;
12248;SDS011;6187;50.778;6.142;2022-12-29T04:42:49;1.03;;;0.73;;
12248;SDS011;6187;50.778;6.142;2022-12-29T04:45:18;3.53;;;0.70;;
12248;SDS011;6187;50.778;6.142;2022-12-29T04:47:46;0.60;;;0.60;;
12248;SDS011;6187;50.778;6.142;2022-12-29T04:50:15;2.40;;;0.70;;
12248;SDS011;6187;50.778;6.142;2022-12-29T04:52:44;1.63;;;0.80;;
12248;SDS011;6187;50.778;6.142;2022-12-29T04:55:12;1.13;;;0.70;;
12248;SDS011;6187;50.778;6.142;2022-12-29T04:57:42;1.37;;;0.67;;
12248;SDS011;6187;50.778;6.142;2022-12-29T05:00:11;1.07;;;0.50;;
12248;SDS011;6187;50.778;6.142;2022-12-29T05:02:40;0.60;;;0.60;;
12248;SDS011;6187;50.778;6.142;2022-12-29T05:05:10;1.43;;;0.70;;
12248;SDS011;6187;50.778;6.142;2022-12-29T05:07:39;1.53;;;0.63;;
12248;SDS011;6187;50.778;6.142;2022-12-29T05:10:08;1.73;;;0.60;;
12248;SDS011;6187;50.778;6.142;2022-12-29T05:12:37;0.73;;;0.70;;
12248;SDS011;6187;50.778;6.142;2022-12-29T05:15:09;0.70;;;0.63;;
12248;SDS011;6187;50.778;6.142;2022-12-29T05:17:37;1.67;;;0.70;;
12248;SDS011;6187;50.778;6.142;2022-12-29T05:20:07;0.87;;;0.60;;
12248;SDS011;6187;50.778;6.142;2022-12-29T05:22:35;1.60;;;0.70;;
12248;SDS011;6187;50.778;6.142;2022-12-29T05:25:04;2.90;;;0.70;;
12248;SDS011;6187;50.778;6.142;2022-12-29T05:27:33;0.67;;;0.60;;
12248;SDS011;6187;50.778;6.142;2022-12-29T05:30:02;1.80;;;0.70;;
12248;SDS011;6187;50.778;6.142;2022-12-29T05:32:32;0.80;;;0.60;;
12248;SDS011;6187;50.778;6.142;2022-12-29T05:35:01;0.80;;;0.50;;
12248;SDS011;6187;50.778;6.142;2022-12-29T05:37:30;0.70;;;0.50;;
12248;SDS011;6187;50.778;6.142;2022-12-29T05:39:58;0.90;;;0.70;;
12248;SDS011;6187;50.778;6.142;2022-12-29T05:42:27;0.87;;;0.70;;
12248;SDS011;6187;50.778;6.142;2022-12-29T05:44:55;1.43;;;0.60;;
12248;SDS011;6187;50.778;6.142;2022-12-29T05:47:24;1.47;;;0.67;;
12248;SDS011;6187;50.778;6.142;2022-12-29T05:49:54;0.63;;;0.60;;
12248;SDS011;6187;50.778;6.142;2022-12-29T05:52:22;0.77;;;0.60;;
12248;SDS011;6187;50.778;6.142;2022-12-29T05:54:51;1.60;;;1.20;;
12248;SDS011;6187;50.778;6.142;2022-12-29T05:57:20;1.17;;;0.80;;
12248;SDS011;6187;50.778;6.142;2022-12-29T05:59:48;1.43;;;0.60;;
12248;SDS011;6187;50.778;6.142;2022-12-29T06:02:17;3.13;;;0.60;;
12248;SDS011;6187;50.778;6.142;2022-12-29T06:04:46;2.27;;;0.70;;
12248;SDS011;6187;50.778;6.142;2022-12-29T06:07:16;1.70;;;0.70;;
12248;SDS011;6187;50.778;6.142;2022-12-29T06:09:44;1.20;;;0.80;;
12248;SDS011;6187;50.778;6.142;2022-12-29T06:12:13;0.93;;;0.60;;
12248;SDS011;6187;50.778;6.142;2022-12-29T06:14:41;0.83;;;0.67;;
12248;SDS011;6187;50.778;6.142;2022-12-29T06:17:10;2.07;;;0.77;;
12248;SDS011;6187;50.778;6.142;2022-12-29T06:19:38;1.13;;;0.60;;
12248;SDS011;6187;50.778;6.142;2022-12-29T06:22:07;1.90;;;0.70;;
12248;SDS011;6187;50.778;6.142;2022-12-29T06:24:39;1.73;;;0.80;;
12248;SDS011;6187;50.778;6.142;2022-12-29T06:27:08;1.67;;;1.00;;
12248;SDS011;6187;50.778;6.142;2022-12-29T06:29:37;0.83;;;0.73;;
12248;SDS011;6187;50.778;6.142;2022-12-29T06:32:07;2.50;;;0.77;;
12248;SDS011;6187;50.778;6.142;2022-12-29T06:34:35;1.20;;;0.63;;
12248;SDS011;6187;50.778;6.142;2022-12-29T06:37:04;0.97;;;0.57;;
12248;SDS011;6187;50.778;6.142;2022-12-29T06:39:32;1.50;;;0.70;;
12248;SDS011;6187;50.778;6.142;2022-12-29T06:42:02;2.10;;;0.70;;
12248;SDS011;6187;50.778;6.142;2022-12-29T06:44:31;2.57;;;0.80;;
12248;SDS011;6187;50.778;6.142;2022-12-29T06:47:00;0.77;;;0.70;;
12248;SDS011;6187;50.778;6.142;2022-12-29T06:49:28;1.73;;;1.00;;
12248;SDS011;6187;50.778;6.142;2022-12-29T06:51:57;0.97;;;0.63;;
12248;SDS011;6187;50.778;6.142;2022-12-29T06:54:27;1.50;;;0.83;;
12248;SDS011;6187;50.778;6.142;2022-12-29T06:56:55;1.57;;;0.70;;
12248;SDS011;6187;50.778;6.142;2022-12-29T06:59:25;1.80;;;0.90;;
12248;SDS011;6187;50.778;6.142;2022-12-29T07:01:54;0.67;;;0.63;;
12248;SDS011;6187;50.778;6.142;2022-12-29T07:04:23;1.37;;;0.70;;
12248;SDS011;6187;50.778;6.142;2022-12-29T07:06:51;0.90;;;0.73;;
12248;SDS011;6187;50.778;6.142;2022-12-29T07:09:20;1.90;;;0.67;;
12248;SDS011;6187;50.778;6.142;2022-12-29T07:11:48;1.13;;;0.70;;
12248;SDS011;6187;50.778;6.142;2022-12-29T07:14:17;1.97;;;1.00;;
12248;SDS011;6187;50.778;6.142;2022-12-29T07:16:47;1.93;;;0.93;;
12248;SDS011;6187;50.778;6.142;2022-12-29T07:19:16;2.00;;;0.90;;
12248;SDS011;6187;50.778;6.142;2022-12-29T07:21:45;1.97;;;0.90;;
12248;SDS011;6187;50.778;6.142;2022-12-29T07:24:13;1.03;;;0.60;;
12248;SDS011;6187;50.778;6.142;2022-12-29T07:26:42;1.23;;;0.80;;
12248;SDS011;6187;50.778;6.142;2022-12-29T07:29:11;1.53;;;0.73;;
12248;SDS011;6187;50.778;6.142;2022-12-29T07:31:39;2.93;;;1.10;;
12248;SDS011;6187;50.778;6.142;2022-12-29T07:34:09;2.10;;;0.90;;
12248;SDS011;6187;50.778;6.142;2022-12-29T07:36:38;1.90;;;1.00;;
12248;SDS011;6187;50.778;6.142;2022-12-29T07:39:06;1.87;;;0.90;;
12248;SDS011;6187;50.778;6.142;2022-12-29T07:41:35;2.63;;;0.80;;
12248;SDS011;6187;50.778;6.142;2022-12-29T07:44:03;3.30;;;1.13;;
12248;SDS011;6187;50.778;6.142;2022-12-29T07:46:32;1.80;;;1.00;;
12248;SDS011;6187;50.778;6.142;2022-12-29T07:49:22;2.20;;;1.00;;
12248;SDS011;6187;50.778;6.142;2022-12-29T07:51:51;1.73;;;0.90;;
12248;SDS011;6187;50.778;6.142;2022-12-29T07:54:20;2.70;;;1.60;;
12248;SDS011;6187;50.778;6.142;2022-12-29T07:56:49;2.37;;;0.90;;
12248;SDS011;6187;50.778;6.142;2022-12-29T07:59:18;2.50;;;1.00;;
12248;SDS011;6187;50.778;6.142;2022-12-29T08:01:47;3.27;;;1.13;;
12248;SDS011;6187;50.778;6.142;2022-12-29T08:04:16;3.90;;;1.10;;
12248;SDS011;6187;50.778;6.142;2022-12-29T08:06:46;3.97;;;1.00;;
12248;SDS011;6187;50.778;6.142;2022-12-29T08:09:14;1.57;;;1.00;;
12248;SDS011;6187;50.778;6.142;2022-12-29T08:11:48;2.50;;;1.30;;
12248;SDS011;6187;50.778;6.142;2022-12-29T08:14:17;3.20;;;1.00;;
12248;SDS011;6187;50.778;6.142;2022-12-29T08:16:45;4.60;;;1.30;;
12248;SDS011;6187;50.778;6.142;2022-12-29T08:19:14;2.07;;;1.07;;
12248;SDS011;6187;50.778;6.142;2022-12-29T08:21:43;3.27;;;1.00;;
12248;SDS011;6187;50.778;6.142;2022-12-29T08:24:13;2.93;;;1.17;;
12248;SDS011;6187;50.778;6.142;2022-12-29T08:26:41;3.33;;;1.17;;
12248;SDS011;6187;50.778;6.142;2022-12-29T08:29:10;5.10;;;1.30;;
12248;SDS011;6187;50.778;6.142;2022-12-29T08:31:39;2.73;;;1.27;;
12248;SDS011;6187;50.778;6.142;2022-12-29T08:34:07;2.60;;;1.40;;
12248;SDS011;6187;50.778;6.142;2022-12-29T08:36:36;3.00;;;1.07;;
12248;SDS011;6187;50.778;6.142;2022-12-29T08:39:05;2.33;;;1.10;;
12248;SDS011;6187;50.778;6.142;2022-12-29T08:41:35;2.73;;;1.23;;
12248;SDS011;6187;50.778;6.142;2022-12-29T08:44:04;3.60;;;1.37;;
12248;SDS011;6187;50.778;6.142;2022-12-29T08:46:32;3.70;;;1.10;;
12248;SDS011;6187;50.778;6.142;2022-12-29T08:49:01;3.50;;;1.23;;
12248;SDS011;6187;50.778;6.142;2022-12-29T08:51:30;2.00;;;1.03;;
12248;SDS011;6187;50.778;6.142;2022-12-29T08:53:58;4.03;;;1.27;;
12248;SDS011;6187;50.778;6.142;2022-12-29T08:56:27;3.90;;;0.97;;
12248;SDS011;6187;50.778;6.142;2022-12-29T08:58:57;2.87;;;1.20;;
12248;SDS011;6187;50.778;6.142;2022-12-29T09:01:26;2.93;;;1.30;;
12248;SDS011;6187;50.778;6.142;2022-12-29T09:03:55;2.80;;;1.10;;
12248;SDS011;6187;50.778;6.142;2022-12-29T09:06:42;3.47;;;1.50;;
12248;SDS011;6187;50.778;6.142;2022-12-29T09:09:11;1.97;;;1.30;;
12248;SDS011;6187;50.778;6.142;2022-12-29T09:11:40;3.23;;;1.10;;
12248;SDS011;6187;50.778;6.142;2022-12-29T09:14:11;4.27;;;1.70;;
12248;SDS011;6187;50.778;6.142;2022-12-29T09:16:39;3.80;;;1.30;;
12248;SDS011;6187;50.778;6.142;2022-12-29T09:19:26;4.10;;;1.20;;
12248;SDS011;6187;50.778;6.142;2022-12-29T09:21:55;2.93;;;1.50;;
12248;SDS011;6187;50.778;6.142;2022-12-29T09:24:23;3.60;;;1.63;;
12248;SDS011;6187;50.778;6.142;2022-12-29T09:26:52;2.33;;;0.93;;
12248;SDS011;6187;50.778;6.142;2022-12-29T09:29:22;3.47;;;1.50;;
12248;SDS011;6187;50.778;6.142;2022-12-29T09:31:50;3.60;;;1.20;;
12248;SDS011;6187;50.778;6.142;2022-12-29T09:34:19;4.93;;;1.27;;
12248;SDS011;6187;50.778;6.142;2022-12-29T09:36:48;4.97;;;1.40;;
12248;SDS011;6187;50.778;6.142;2022-12-29T09:39:16;6.00;;;1.53;;
12248;SDS011;6187;50.778;6.142;2022-12-29T09:41:47;6.73;;;1.60;;
12248;SDS011;6187;50.778;6.142;2022-12-29T09:44:17;4.33;;;1.40;;
12248;SDS011;6187;50.778;6.142;2022-12-29T09:46:49;2.77;;;1.07;;
12248;SDS011;6187;50.778;6.142;2022-12-29T09:49:22;4.30;;;1.63;;
12248;SDS011;6187;50.778;6.142;2022-12-29T09:51:53;3.23;;;1.10;;
12248;SDS011;6187;50.778;6.142;2022-12-29T09:54:34;2.73;;;1.40;;
12248;SDS011;6187;50.778;6.142;2022-12-29T09:57:05;4.47;;;1.40;;
12248;SDS011;6187;50.778;6.142;2022-12-29T09:59:39;3.70;;;1.30;;
12248;SDS011;6187;50.778;6.142;2022-12-29T10:02:15;2.93;;;1.10;;
12248;SDS011;6187;50.778;6.142;2022-12-29T10:04:46;2.33;;;1.23;;
12248;SDS011;6187;50.778;6.142;2022-12-29T10:07:17;2.77;;;1.23;;
12248;SDS011;6187;50.778;6.142;2022-12-29T10:09:58;4.93;;;1.20;;
12248;SDS011;6187;50.778;6.142;2022-12-29T10:12:32;4.27;;;1.47;;
12248;SDS011;6187;50.778;6.142;2022-12-29T10:15:10;3.27;;;1.10;;
12248;SDS011;6187;50.778;6.142;2022-12-29T10:17:43;3.73;;;1.13;;
12248;SDS011;6187;50.778;6.142;2022-12-29T10:20:27;2.83;;;1.20;;
12248;SDS011;6187;50.778;6.142;2022-12-29T10:23:01;3.53;;;1.50;;
12248;SDS011;6187;50.778;6.142;2022-12-29T10:25:34;3.17;;;1.53;;
12248;SDS011;6187;50.778;6.142;2022-12-29T10:28:04;2.40;;;1.10;;
12248;SDS011;6187;50.778;6.142;2022-12-29T10:30:34;3.83;;;1.60;;
12248;SDS011;6187;50.778;6.142;2022-12-29T10:33:05;3.20;;;1.40;;
12248;SDS011;6187;50.778;6.142;2022-12-29T10:35:36;3.30;;;1.23;;
12248;SDS011;6187;50.778;6.142;2022-12-29T10:38:11;3.50;;;1.37;;
12248;SDS011;6187;50.778;6.142;2022-12-29T10:40:42;3.67;;;1.77;;
12248;SDS011;6187;50.778;6.142;2022-12-29T10:43:15;3.07;;;1.20;;
12248;SDS011;6187;50.778;6.142;2022-12-29T10:45:47;3.70;;;1.17;;
12248;SDS011;6187;50.778;6.142;2022-12-29T10:48:19;2.60;;;1.40;;
12248;SDS011;6187;50.778;6.142;2022-12-29T10:50:55;3.53;;;1.40;;
12248;SDS011;6187;50.778;6.142;2022-12-29T10:53:30;4.50;;;1.50;;
12248;SDS011;6187;50.778;6.142;2022-12-29T10:56:01;3.53;;;1.13;;
12248;SDS011;6187;50.778;6.142;2022-12-29T10:58:32;4.67;;;1.23;;
12248;SDS011;6187;50.778;6.142;2022-12-29T11:01:00;4.53;;;1.60;;
12248;SDS011;6187;50.778;6.142;2022-12-29T11:03:41;2.43;;;1.40;;
12248;SDS011;6187;50.778;6.142;2022-12-29T11:06:15;3.90;;;1.40;;
12248;SDS011;6187;50.778;6.142;2022-12-29T11:08:47;4.50;;;1.50;;
12248;SDS011;6187;50.778;6.142;2022-12-29T11:11:22;3.17;;;1.30;;
12248;SDS011;6187;50.778;6.142;2022-12-29T11:13:56;2.97;;;1.50;;
12248;SDS011;6187;50.778;6.142;2022-12-29T11:16:29;4.47;;;1.47;;
12248;SDS011;6187;50.778;6.142;2022-12-29T11:19:02;2.90;;;1.03;;
12248;SDS011;6187;50.778;6.142;2022-12-29T11:21:32;1.77;;;0.97;;
12248;SDS011;6187;50.778;6.142;2022-12-29T11:24:18;3.07;;;1.10;;
12248;SDS011;6187;50.778;6.142;2022-12-29T11:26:48;4.67;;;1.27;;
12248;SDS011;6187;50.778;6.142;2022-12-29T11:29:20;4.20;;;1.20;;
12248;SDS011;6187;50.778;6.142;2022-12-29T11:31:49;5.00;;;1.70;;
12248;SDS011;6187;50.778;6.142;2022-12-29T11:34:20;3.27;;;1.40;;
12248;SDS011;6187;50.778;6.142;2022-12-29T11:36:50;3.30;;;1.40;;
12248;SDS011;6187;50.778;6.142;2022-12-29T11:39:24;3.70;;;1.57;;
12248;SDS011;6187;50.778;6.142;2022-12-29T11:41:53;3.53;;;1.43;;
12248;SDS011;6187;50.778;6.142;2022-12-29T11:44:22;4.17;;;1.27;;
12248;SDS011;6187;50.778;6.142;2022-12-29T11:46:51;4.80;;;1.70;;
12248;SDS011;6187;50.778;6.142;2022-12-29T11:49:22;2.70;;;1.40;;
12248;SDS011;6187;50.778;6.142;2022-12-29T11:51:52;2.87;;;1.20;;
12248;SDS011;6187;50.778;6.142;2022-12-29T11:54:23;3.87;;;1.57;;
12248;SDS011;6187;50.778;6.142;2022-12-29T11:56:53;3.77;;;1.50;;
12248;SDS011;6187;50.778;6.142;2022-12-29T11:59:36;4.30;;;1.40;;
12248;SDS011;6187;50.778;6.142;2022-12-29T12:04:56;2.57;;;1.30;;
12248;SDS011;6187;50.778;6.142;2022-12-29T12:07:31;3.57;;;1.20;;
12248;SDS011;6187;50.778;6.142;2022-12-29T12:10:03;3.67;;;1.20;;
12248;SDS011;6187;50.778;6.142;2022-12-29T12:12:34;2.77;;;1.20;;
12248;SDS011;6187;50.778;6.142;2022-12-29T12:15:04;3.70;;;1.53;;
12248;SDS011;6187;50.778;6.142;2022-12-29T12:17:33;2.77;;;1.27;;
12248;SDS011;6187;50.778;6.142;2022-12-29T12:20:12;2.43;;;1.30;;
12248;SDS011;6187;50.778;6.142;2022-12-29T12:22:43;3.60;;;1.40;;
12248;SDS011;6187;50.778;6.142;2022-12-29T12:25:14;3.33;;;1.30;;
12248;SDS011;6187;50.778;6.142;2022-12-29T12:27:48;2.33;;;1.13;;
12248;SDS011;6187;50.778;6.142;2022-12-29T12:30:19;2.23;;;1.23;;
12248;SDS011;6187;50.778;6.142;2022-12-29T12:32:50;4.13;;;1.63;;
12248;SDS011;6187;50.778;6.142;2022-12-29T12:35:23;4.77;;;1.33;;
12248;SDS011;6187;50.778;6.142;2022-12-29T12:37:58;4.00;;;1.43;;
12248;SDS011;6187;50.778;6.142;2022-12-29T12:40:34;1.70;;;1.00;;
12248;SDS011;6187;50.778;6.142;2022-12-29T12:43:08;2.87;;;1.43;;
12248;SDS011;6187;50.778;6.142;2022-12-29T12:45:42;1.73;;;1.13;;
12248;SDS011;6187;50.778;6.142;2022-12-29T12:50:59;2.37;;;1.20;;
12248;SDS011;6187;50.778;6.142;2022-12-29T12:53:39;2.90;;;1.20;;
12248;SDS011;6187;50.778;6.142;2022-12-29T12:56:16;6.03;;;1.60;;
12248;SDS011;6187;50.778;6.142;2022-12-29T12:58:52;3.83;;;1.53;;
12248;SDS011;6187;50.778;6.142;2022-12-29T13:01:29;3.93;;;1.20;;
12248;SDS011;6187;50.778;6.142;2022-12-29T13:06:54;3.97;;;1.67;;
12248;SDS011;6187;50.778;6.142;2022-12-29T13:09:33;3.80;;;1.20;;
12248;SDS011;6187;50.778;6.142;2022-12-29T13:12:11;2.47;;;1.10;;
12248;SDS011;6187;50.778;6.142;2022-12-29T13:14:47;2.33;;;1.00;;
12248;SDS011;6187;50.778;6.142;2022-12-29T13:17:23;2.63;;;1.07;;
12248;SDS011;6187;50.778;6.142;2022-12-29T13:19:56;3.00;;;0.93;;
12248;SDS011;6187;50.778;6.142;2022-12-29T13:22:29;2.63;;;1.13;;
12248;SDS011;6187;50.778;6.142;2022-12-29T13:25:06;2.50;;;1.20;;
12248;SDS011;6187;50.778;6.142;2022-12-29T13:27:38;2.87;;;1.13;;
12248;SDS011;6187;50.778;6.142;2022-12-29T13:30:12;3.30;;;1.27;;
12248;SDS011;6187;50.778;6.142;2022-12-29T13:32:47;3.37;;;1.10;;
12248;SDS011;6187;50.778;6.142;2022-12-29T13:35:21;1.73;;;1.07;;
12248;SDS011;6187;50.778;6.142;2022-12-29T13:37:54;1.40;;;0.90;;
12248;SDS011;6187;50.778;6.142;2022-12-29T13:40:24;0.97;;;0.83;;
12248;SDS011;6187;50.778;6.142;2022-12-29T13:42:54;2.07;;;0.90;;
12248;SDS011;6187;50.778;6.142;2022-12-29T13:45:24;1.77;;;0.90;;
12248;SDS011;6187;50.778;6.142;2022-12-29T13:47:54;1.90;;;0.87;;
12248;SDS011;6187;50.778;6.142;2022-12-29T13:50:24;2.50;;;1.07;;
12248;SDS011;6187;50.778;6.142;2022-12-29T13:52:58;2.60;;;1.10;;
12248;SDS011;6187;50.778;6.142;2022-12-29T13:55:32;3.43;;;1.10;;
12248;SDS011;6187;50.778;6.142;2022-12-29T13:58:04;2.30;;;1.20;;
12248;SDS011;6187;50.778;6.142;2022-12-29T14:00:38;2.20;;;1.00;;
12248;SDS011;6187;50.778;6.142;2022-12-29T14:03:26;3.07;;;1.20;;
12248;SDS011;6187;50.778;6.142;2022-12-29T14:06:04;1.93;;;1.17;;
12248;SDS011;6187;50.778;6.142;2022-12-29T14:08:34;2.73;;;1.10;;
12248;SDS011;6187;50.778;6.142;2022-12-29T14:11:05;2.70;;;1.10;;
12248;SDS011;6187;50.778;6.142;2022-12-29T14:13:37;3.77;;;1.10;;
12248;SDS011;6187;50.778;6.142;2022-12-29T14:16:07;2.27;;;1.20;;
12248;SDS011;6187;50.778;6.142;2022-12-29T14:18:41;2.40;;;0.97;;
12248;SDS011;6187;50.778;6.142;2022-12-29T14:21:11;4.17;;;1.20;;
12248;SDS011;6187;50.778;6.142;2022-12-29T14:23:47;2.60;;;1.10;;
12248;SDS011;6187;50.778;6.142;2022-12-29T14:26:17;1.87;;;1.13;;
12248;SDS011;6187;50.778;6.142;2022-12-29T14:28:46;2.50;;;0.90;;
12248;SDS011;6187;50.778;6.142;2022-12-29T14:31:34;3.67;;;1.40;;
12248;SDS011;6187;50.778;6.142;2022-12-29T14:34:27;3.20;;;1.30;;
12248;SDS011;6187;50.778;6.142;2022-12-29T14:36:56;1.93;;;1.23;;
12248;SDS011;6187;50.778;6.142;2022-12-29T14:39:29;3.67;;;1.43;;
12248;SDS011;6187;50.778;6.142;2022-12-29T14:41:59;3.23;;;1.53;;
12248;SDS011;6187;50.778;6.142;2022-12-29T14:44:28;4.60;;;1.60;;
12248;SDS011;6187;50.778;6.142;2022-12-29T14:46:58;2.87;;;1.47;;
12248;SDS011;6187;50.778;6.142;2022-12-29T14:49:29;2.87;;;1.23;;
12248;SDS011;6187;50.778;6.142;2022-12-29T14:52:06;4.27;;;1.70;;
12248;SDS011;6187;50.778;6.142;2022-12-29T14:54:44;3.97;;;1.60;;
12248;SDS011;6187;50.778;6.142;2022-12-29T15:00:01;3.97;;;1.73;;
12248;SDS011;6187;50.778;6.142;2022-12-29T15:02:32;3.37;;;1.57;;
12248;SDS011;6187;50.778;6.142;2022-12-29T15:05:02;4.77;;;1.70;;
12248;SDS011;6187;50.778;6.142;2022-12-29T15:07:31;3.77;;;1.30;;
12248;SDS011;6187;50.778;6.142;2022-12-29T15:10:04;5.67;;;2.10;;
12248;SDS011;6187;50.778;6.142;2022-12-29T15:12:35;3.83;;;1.60;;
12248;SDS011;6187;50.778;6.142;2022-12-29T15:15:19;3.70;;;1.53;;
12248;SDS011;6187;50.778;6.142;2022-12-29T15:17:48;5.23;;;1.40;;
12248;SDS011;6187;50.778;6.142;2022-12-29T15:20:20;5.47;;;1.60;;
12248;SDS011;6187;50.778;6.142;2022-12-29T15:22:51;5.07;;;1.50;;
12248;SDS011;6187;50.778;6.142;2022-12-29T15:25:22;4.27;;;1.73;;
12248;SDS011;6187;50.778;6.142;2022-12-29T15:27:52;3.90;;;1.47;;
12248;SDS011;6187;50.778;6.142;2022-12-29T15:30:21;3.23;;;1.50;;
12248;SDS011;6187;50.778;6.142;2022-12-29T15:32:49;3.17;;;1.50;;
12248;SDS011;6187;50.778;6.142;2022-12-29T15:35:27;3.20;;;1.57;;
12248;SDS011;6187;50.778;6.142;2022-12-29T15:37:56;3.93;;;1.47;;
12248;SDS011;6187;50.778;6.142;2022-12-29T15:40:27;3.70;;;1.87;;
12248;SDS011;6187;50.778;6.142;2022-12-29T15:43:06;4.03;;;1.50;;